Time;durP1;ratioP1;P1;durP2;ratioP2;P2;SDS_P1;SDS_P2;PMS_P1;PMS_P2;Temp;Humidity;BMP_temperature;BMP_pressure;BME280_temperature;BME280_humidity;BME280_pressure;Samples;Min_cycle;Max_cycle;Signal;HPM_P1;HPM_P2
2022/11/03 00:00:06;;;;;;;9.05;4.38;;;;;;;9.17;77.44;99949.63;341054;29;1068;-75
2022/11/03 00:00:23;;;;;;;8.30;4.55;;;;;;;9.17;77.15;99954.81;341938;28;1105;-74
2022/11/03 00:00:35;;;;;;;9.68;4.72;;;;;;;9.18;77.38;99950.50;342253;28;1265;-74
2022/11/03 00:00:47;;;;;;;10.15;4.40;;;;;;;9.22;76.90;99953.91;342127;28;1078;-74
2022/11/03 00:00:59;;;;;;;8.32;4.13;;;;;;;9.23;76.97;99955.59;341464;28;1801;-74
2022/11/03 00:01:11;;;;;;;10.02;4.13;;;;;;;9.22;77.16;99953.91;341809;28;1977;-75
2022/11/03 00:01:23;;;;;;;9.95;4.32;;;;;;;9.19;76.92;99950.47;342025;28;1184;-74
2022/11/03 00:01:38;;;;;;;9.35;4.30;;;;;;;9.22;77.30;99948.72;341468;28;1827;-74
2022/11/03 00:01:50;;;;;;;9.43;4.50;;;;;;;9.22;77.08;99953.91;340707;29;1144;-76
2022/11/03 00:02:02;;;;;;;8.68;4.53;;;;;;;9.20;77.41;99954.78;340985;29;1183;-75
2022/11/03 00:02:14;;;;;;;9.00;4.70;;;;;;;9.22;77.31;99953.91;342260;28;1016;-75
2022/11/03 00:02:26;;;;;;;9.80;4.60;;;;;;;9.24;77.00;99952.97;339650;29;1049;-74
2022/11/03 00:02:38;;;;;;;9.60;4.60;;;;;;;9.25;77.31;99951.22;339406;29;1097;-74
2022/11/03 00:02:50;;;;;;;10.73;4.80;;;;;;;9.27;76.69;99957.22;339625;28;1686;-77
2022/11/03 00:03:02;;;;;;;9.95;4.32;;;;;;;9.26;77.10;99950.34;339947;29;1732;-74
2022/11/03 00:03:15;;;;;;;10.52;4.40;;;;;;;9.28;77.05;99951.16;340701;29;1195;-75
2022/11/03 00:03:27;;;;;;;8.98;4.45;;;;;;;9.29;76.80;99955.44;339347;29;1158;-77
2022/11/03 00:03:39;;;;;;;10.50;4.32;;;;;;;9.30;76.82;99957.16;339447;29;1284;-77
2022/11/03 00:03:51;;;;;;;10.20;4.47;;;;;;;9.28;76.86;99949.41;339709;28;1751;-77
2022/11/03 00:04:07;;;;;;;10.23;4.50;;;;;;;9.29;76.68;99951.09;339794;29;1824;-74
2022/11/03 00:04:21;;;;;;;9.00;4.15;;;;;;;9.31;76.70;99953.66;339599;29;1317;-75
2022/11/03 00:04:33;;;;;;;8.48;4.15;;;;;;;9.31;77.00;99948.47;340217;28;1834;-75
2022/11/03 00:04:45;;;;;;;9.07;4.28;;;;;;;9.29;76.59;99955.44;340512;29;1666;-74
2022/11/03 00:06:03;;;;;;;8.68;4.43;;;;;;;9.29;76.75;99947.66;339994;29;1822;-74
2022/11/03 00:06:06;;;;;;;9.40;4.65;;;;;;;9.19;76.83;99947.88;340643;28;1697;-75
2022/11/03 00:06:18;;;;;;;9.07;4.30;;;;;;;9.26;76.75;99950.34;341472;28;1154;-74
2022/11/03 00:06:30;;;;;;;9.07;4.20;;;;;;;9.27;76.94;99946.84;340831;28;2051;-76
2022/11/03 00:06:43;;;;;;;11.93;4.15;;;;;;;9.27;76.84;99947.69;342292;28;1559;-76
2022/11/03 00:06:55;;;;;;;11.65;4.50;;;;;;;9.25;76.77;99952.06;341190;28;1776;-74
2022/11/03 00:07:07;;;;;;;13.82;4.88;;;;;;;9.13;77.04;99950.59;341336;28;1643;-74
2022/11/03 00:07:21;;;;;;;11.23;4.85;;;;;;;8.99;77.39;99953.50;342225;28;1193;-76
2022/11/03 00:07:32;;;;;;;12.07;4.95;;;;;;;9.00;77.54;99954.34;341669;28;1760;-75
2022/11/03 00:07:44;;;;;;;10.48;4.88;;;;;;;9.05;77.38;99951.66;342162;28;1850;-75
2022/11/03 00:07:56;;;;;;;10.85;4.43;;;;;;;9.03;77.84;99949.09;342219;28;1202;-75
2022/11/03 00:08:08;;;;;;;10.63;4.40;;;;;;;9.05;77.50;99952.50;342214;28;1071;-75
2022/11/03 00:08:20;;;;;;;12.80;4.50;;;;;;;9.05;78.16;99952.50;342114;28;1243;-74
2022/11/03 00:08:41;;;;;;;12.65;4.57;;;;;;;9.10;77.75;99957.59;341822;28;1931;-74
2022/11/03 00:08:57;;;;;;;10.07;4.50;;;;;;;9.06;77.93;99951.63;341533;28;1723;-75
2022/11/03 00:09:10;;;;;;;9.38;4.45;;;;;;;9.00;77.96;99949.16;341833;28;1970;-74
2022/11/03 00:09:25;;;;;;;8.35;4.72;;;;;;;8.96;78.11;99948.38;342107;28;1231;-75
2022/11/03 00:09:38;;;;;;;9.38;5.07;;;;;;;8.99;78.34;99950.03;341544;28;2108;-76
2022/11/03 00:09:50;;;;;;;11.70;5.28;;;;;;;9.03;78.21;99953.44;340628;28;1768;-75
2022/11/03 00:10:02;;;;;;;11.10;4.90;;;;;;;9.05;78.19;99957.69;340959;28;1816;-74
2022/11/03 00:10:13;;;;;;;10.50;4.53;;;;;;;9.09;77.98;99958.47;342173;28;1096;-74
2022/11/03 00:10:25;;;;;;;8.23;4.50;;;;;;;9.09;77.87;99953.28;342277;28;1463;-74
2022/11/03 00:10:37;;;;;;;9.82;4.45;;;;;;;9.13;77.70;99949.75;341010;28;1604;-74
2022/11/03 00:10:49;;;;;;;10.15;4.38;;;;;;;9.15;77.54;99953.16;341991;28;1048;-74
2022/11/03 00:11:12;;;;;;;8.02;4.13;;;;;;;9.15;77.58;99953.16;342189;28;1011;-76
2022/11/03 00:11:25;;;;;;;7.83;4.37;;;;;;;9.15;77.15;99963.53;341974;28;1136;-77
2022/11/03 00:11:38;;;;;;;9.60;4.47;;;;;;;9.16;77.25;99955.72;342288;28;1173;-74
2022/11/03 00:11:50;;;;;;;9.75;4.55;;;;;;;9.19;76.90;99957.38;341783;28;1716;-78
2022/11/03 00:12:03;;;;;;;8.98;4.55;;;;;;;9.18;76.93;99953.94;340939;28;1768;-74
2022/11/03 00:12:14;;;;;;;11.07;4.78;;;;;;;9.17;77.03;99957.41;342215;28;1076;-75
2022/11/03 00:12:26;;;;;;;10.45;4.70;;;;;;;9.17;76.73;99957.41;342164;28;1222;-74
2022/11/03 00:12:38;;;;;;;9.55;4.65;;;;;;;9.19;77.09;99954.78;341289;28;1819;-74
2022/11/03 00:12:52;;;;;;;10.30;4.50;;;;;;;9.21;76.77;99958.22;341613;28;1859;-75
2022/11/03 00:13:04;;;;;;;9.82;4.32;;;;;;;9.22;76.71;99952.16;340638;29;1102;-74
2022/11/03 00:13:16;;;;;;;9.68;4.13;;;;;;;9.23;76.79;99955.59;339482;29;1256;-74
2022/11/03 00:13:28;;;;;;;10.02;4.20;;;;;;;9.24;76.63;99957.31;340711;29;1187;-74
2022/11/03 00:13:42;;;;;;;10.13;4.22;;;;;;;9.26;76.43;99950.34;341071;28;1214;-74
2022/11/03 00:13:55;;;;;;;7.97;4.18;;;;;;;9.28;76.38;99952.00;339803;28;1656;-75
2022/11/03 00:14:09;;;;;;;8.43;4.30;;;;;;;9.29;76.45;99955.44;340118;28;1939;-79
2022/11/03 00:14:21;;;;;;;8.20;4.20;;;;;;;9.29;76.65;99958.03;340401;29;1055;-74
2022/11/03 00:14:33;;;;;;;8.93;4.15;;;;;;;9.29;76.59;99961.47;340558;28;1618;-78
2022/11/03 00:14:45;;;;;;;9.05;4.10;;;;;;;9.28;76.47;99957.19;340181;28;1537;-74
2022/11/03 00:14:57;;;;;;;8.82;4.03;;;;;;;9.30;76.75;99957.16;340958;29;1019;-75
2022/11/03 00:15:09;;;;;;;8.88;4.10;;;;;;;9.29;76.54;99956.28;341736;28;1607;-74
2022/11/03 00:15:21;;;;;;;7.20;3.95;;;;;;;9.30;76.62;99951.97;341804;28;1071;-77
2022/11/03 00:15:33;;;;;;;8.23;3.90;;;;;;;9.30;76.83;99946.78;342237;28;1147;-75
2022/11/03 00:15:48;;;;;;;10.50;4.30;;;;;;;9.30;76.75;99952.84;341986;28;1023;-75
2022/11/03 00:16:00;;;;;;;9.07;4.47;;;;;;;9.30;76.74;99954.56;341778;28;1413;-74
2022/11/03 00:16:12;;;;;;;7.85;4.13;;;;;;;9.31;76.63;99951.91;341845;28;1665;-73
2022/11/03 00:16:25;;;;;;;8.18;4.25;;;;;;;9.31;76.49;99948.47;342282;28;1180;-74
2022/11/03 00:16:38;;;;;;;7.60;4.15;;;;;;;9.31;76.72;99954.53;342337;28;1192;-74
2022/11/03 00:16:50;;;;;;;9.23;4.30;;;;;;;9.28;76.59;99951.16;340104;28;1780;-78
2022/11/03 00:17:02;;;;;;;11.90;5.30;;;;;;;9.29;76.50;99955.44;340494;29;1842;-77
2022/11/03 00:17:14;;;;;;;12.15;6.30;;;;;;;9.30;76.46;99952.84;340476;28;1748;-76
2022/11/03 00:17:26;;;;;;;11.68;6.25;;;;;;;9.31;76.52;99953.66;340849;29;1128;-77
2022/11/03 00:17:38;;;;;;;10.23;5.10;;;;;;;9.32;76.25;99955.41;340893;29;1036;-77
2022/11/03 00:17:50;;;;;;;10.30;4.78;;;;;;;9.33;76.37;99949.31;339545;28;1720;-74
2022/11/03 00:18:02;;;;;;;10.05;4.80;;;;;;;9.32;76.28;99953.66;340533;29;1615;-74
2022/11/03 00:18:14;;;;;;;11.07;4.63;;;;;;;9.30;76.33;99946.78;340739;29;1267;-74
2022/11/03 00:18:26;;;;;;;11.25;4.88;;;;;;;9.29;76.51;99950.25;340977;29;1072;-74
2022/11/03 00:18:38;;;;;;;10.82;5.00;;;;;;;9.27;76.31;99950.28;340239;28;1893;-75
2022/11/03 00:18:50;;;;;;;10.30;5.07;;;;;;;9.29;76.10;99950.25;340622;28;1692;-74
2022/11/03 00:19:03;;;;;;;9.23;4.78;;;;;;;9.31;76.30;99948.47;343486;28;1244;-74
2022/11/03 00:19:16;;;;;;;8.98;4.32;;;;;;;9.30;76.34;99951.97;341646;28;1997;-74
2022/11/03 00:19:28;;;;;;;10.05;4.55;;;;;;;9.30;75.93;99951.97;341326;28;1619;-78
2022/11/03 00:19:40;;;;;;;10.00;4.60;;;;;;;9.30;76.07;99946.78;342093;28;1049;-76
2022/11/03 00:19:52;;;;;;;8.48;4.30;;;;;;;9.27;76.00;99947.69;341639;28;1775;-77
2022/11/03 00:20:04;;;;;;;8.55;4.32;;;;;;;9.30;75.97;99946.78;340904;28;1764;-74
2022/11/03 00:20:16;;;;;;;8.82;4.60;;;;;;;9.30;75.71;99951.97;341702;28;1377;-76
2022/11/03 00:20:28;;;;;;;9.10;4.50;;;;;;;9.27;75.84;99959.81;343466;28;1283;-75
2022/11/03 00:20:40;;;;;;;8.60;4.47;;;;;;;9.26;75.88;99951.19;341870;28;1807;-77
2022/11/03 00:20:57;;;;;;;8.93;4.75;;;;;;;9.22;75.97;99954.75;340399;29;1996;-77
2022/11/03 00:21:11;;;;;;;9.63;4.95;;;;;;;9.23;76.38;99950.41;340129;28;1370;-76
2022/11/03 00:21:23;;;;;;;9.18;4.72;;;;;;;9.18;76.77;99946.16;340262;28;1753;-74
2022/11/03 00:21:36;;;;;;;10.23;4.90;;;;;;;9.17;76.39;99946.19;340657;28;1093;-74
2022/11/03 00:21:48;;;;;;;11.10;4.80;;;;;;;9.17;76.53;99951.38;340227;28;1756;-75
2022/11/03 00:22:00;;;;;;;10.27;4.63;;;;;;;9.12;76.57;99954.09;340164;29;1474;-76
2022/11/03 00:22:12;;;;;;;10.13;4.43;;;;;;;9.10;76.67;99944.63;340421;29;1361;-76
2022/11/03 00:22:24;;;;;;;10.15;4.72;;;;;;;9.09;76.61;99954.13;341717;28;1153;-77
2022/11/03 00:22:36;;;;;;;10.40;4.75;;;;;;;9.08;76.94;99949.84;339605;29;1823;-77
2022/11/03 00:22:48;;;;;;;9.00;4.88;;;;;;;9.07;76.90;99950.72;339636;29;1075;-74
2022/11/03 00:23:00;;;;;;;9.65;4.85;;;;;;;9.08;76.92;99947.25;340607;29;1986;-75
2022/11/03 00:23:12;;;;;;;9.55;4.70;;;;;;;9.09;76.98;99951.53;340750;29;1272;-75
2022/11/03 00:23:26;;;;;;;9.68;4.55;;;;;;;9.06;77.26;99953.38;342660;28;1145;-76
2022/11/03 00:23:40;;;;;;;8.73;4.60;;;;;;;9.07;77.15;99949.88;340888;28;1947;-74
2022/11/03 00:23:53;;;;;;;8.20;4.40;;;;;;;9.08;77.33;99942.06;341035;28;1826;-77
2022/11/03 00:24:05;;;;;;;7.53;4.25;;;;;;;9.10;76.92;99950.66;341194;28;1879;-74
2022/11/03 00:24:17;;;;;;;9.20;4.25;;;;;;;9.10;77.19;99945.50;340993;28;1589;-75
2022/11/03 00:24:29;;;;;;;10.10;4.68;;;;;;;9.12;77.03;99950.66;341600;28;1977;-74
2022/11/03 00:24:41;;;;;;;11.98;4.93;;;;;;;9.12;76.71;99954.09;341205;28;1485;-75
2022/11/03 00:24:53;;;;;;;12.50;4.82;;;;;;;9.09;77.10;99946.34;341063;28;1819;-77
2022/11/03 00:25:05;;;;;;;12.38;4.45;;;;;;;9.09;76.98;99943.75;341865;28;1783;-74
2022/11/03 00:25:17;;;;;;;10.98;4.55;;;;;;;9.11;77.09;99957.56;341259;28;1185;-74
2022/11/03 00:25:29;;;;;;;10.20;4.70;;;;;;;9.12;76.77;99951.50;342324;28;1039;-75
2022/11/03 00:25:41;;;;;;;9.32;4.72;;;;;;;9.13;76.82;99950.59;341975;28;1032;-74
2022/11/03 00:25:53;;;;;;;9.52;4.60;;;;;;;9.07;76.92;99945.53;341422;28;1826;-75
2022/11/03 00:26:07;;;;;;;8.60;4.38;;;;;;;9.07;76.75;99950.72;341190;28;1779;-74
2022/11/03 00:26:20;;;;;;;8.98;4.20;;;;;;;9.03;77.15;99949.09;341718;28;1236;-74
2022/11/03 00:26:34;;;;;;;10.65;4.47;;;;;;;9.00;77.09;99951.75;343261;28;1192;-75
2022/11/03 00:26:46;;;;;;;11.32;4.78;;;;;;;8.96;77.12;99947.53;342194;28;2113;-77
2022/11/03 00:27:00;;;;;;;9.63;4.80;;;;;;;8.94;77.27;99955.31;341465;28;1745;-77
2022/11/03 00:27:12;;;;;;;11.50;4.80;;;;;;;8.95;77.11;99951.00;339524;29;1041;-76
2022/11/03 00:27:24;;;;;;;12.68;5.05;;;;;;;8.95;77.28;99957.06;340613;29;1091;-76
2022/11/03 00:27:36;;;;;;;12.00;5.05;;;;;;;8.96;77.09;99944.94;340877;29;1942;-77
2022/11/03 00:27:53;;;;;;;10.20;4.80;;;;;;;8.95;77.28;99945.81;340895;29;1118;-77
2022/11/03 00:28:05;;;;;;;9.15;4.53;;;;;;;8.96;77.10;99947.53;340527;28;1889;-74
2022/11/03 00:28:17;;;;;;;11.13;4.88;;;;;;;8.99;77.05;99950.03;340577;29;1429;-74
2022/11/03 00:28:32;;;;;;;12.13;4.90;;;;;;;9.01;77.07;99945.69;339836;29;1153;-75
2022/11/03 00:28:46;;;;;;;10.80;4.70;;;;;;;9.00;77.17;99954.34;339734;29;1258;-77
2022/11/03 00:29:00;;;;;;;12.10;4.63;;;;;;;9.00;77.05;99949.16;340869;28;2057;-77
2022/11/03 00:29:13;;;;;;;11.93;4.70;;;;;;;8.98;77.38;99951.78;341393;28;1128;-74
2022/11/03 00:29:25;;;;;;;9.23;4.70;;;;;;;8.98;77.52;99945.75;341899;28;1395;-74
2022/11/03 00:29:37;;;;;;;8.80;4.60;;;;;;;8.95;77.27;99949.28;340206;28;1886;-74
2022/11/03 00:29:49;;;;;;;7.40;4.50;;;;;;;8.94;77.62;99949.31;340685;29;1906;-74
2022/11/03 00:30:01;;;;;;;8.43;4.65;;;;;;;8.96;77.56;99943.19;340579;29;1169;-74
2022/11/03 00:30:13;;;;;;;8.70;4.72;;;;;;;8.97;77.63;99949.22;340314;29;1578;-74
2022/11/03 00:30:24;;;;;;;11.75;4.72;;;;;;;8.96;77.41;99945.78;340697;29;1648;-74
2022/11/03 00:30:38;;;;;;;12.40;4.82;;;;;;;8.94;77.55;99947.56;340734;29;1497;-75
2022/11/03 00:30:50;;;;;;;11.88;4.75;;;;;;;8.96;77.40;99952.72;340457;28;1693;-75
2022/11/03 00:31:15;;;;;;;11.35;4.80;;;;;;;8.95;77.60;99943.22;340593;29;1828;-76
2022/11/03 00:31:33;;;;;;;8.27;4.80;;;;;;;8.96;77.56;99943.19;341050;29;1040;-74
2022/11/03 00:31:45;;;;;;;8.57;4.45;;;;;;;8.97;77.24;99944.91;340705;28;1610;-76
2022/11/03 00:31:57;;;;;;;8.38;4.30;;;;;;;8.96;77.09;99943.19;341424;28;1714;-75
2022/11/03 00:32:09;;;;;;;8.45;4.50;;;;;;;8.99;77.18;99947.44;341667;28;1973;-74
2022/11/03 00:32:21;;;;;;;9.10;4.43;;;;;;;9.01;77.07;99945.69;342257;28;1226;-75
2022/11/03 00:32:33;;;;;;;9.40;4.50;;;;;;;9.02;76.78;99947.41;341853;28;1994;-74
2022/11/03 00:32:45;;;;;;;9.73;4.60;;;;;;;9.01;76.90;99945.69;341951;28;1802;-74
2022/11/03 00:32:57;;;;;;;9.35;4.80;;;;;;;9.02;77.04;99947.41;342305;28;1070;-75
2022/11/03 00:33:09;;;;;;;10.98;4.80;;;;;;;9.04;77.06;99940.44;342276;28;1239;-74
2022/11/03 00:33:25;;;;;;;11.02;4.65;;;;;;;9.05;77.09;99943.88;341954;28;1401;-74
2022/11/03 00:33:38;;;;;;;10.52;4.50;;;;;;;9.07;77.19;99940.34;342261;28;1235;-73
2022/11/03 00:33:50;;;;;;;10.00;4.47;;;;;;;9.04;77.06;99949.97;341616;28;1488;-75
2022/11/03 00:34:04;;;;;;;9.48;5.07;;;;;;;9.01;77.22;99956.03;342208;28;1992;-78
2022/11/03 00:34:16;;;;;;;10.80;5.30;;;;;;;8.99;77.40;99944.84;341101;28;1946;-79
2022/11/03 00:34:27;;;;;;;11.98;5.30;;;;;;;8.98;77.47;99940.56;341604;28;1815;-74
2022/11/03 00:34:39;;;;;;;12.65;5.28;;;;;;;9.00;77.23;99937.06;341299;28;1951;-74
2022/11/03 00:34:51;;;;;;;12.05;4.88;;;;;;;9.00;77.05;99949.16;341859;28;1712;-74
2022/11/03 00:35:04;;;;;;;11.23;4.60;;;;;;;8.99;77.24;99947.44;342307;28;1048;-74
2022/11/03 00:35:15;;;;;;;10.95;4.88;;;;;;;8.99;77.38;99937.06;341148;29;1087;-74
2022/11/03 00:35:27;;;;;;;9.98;4.97;;;;;;;9.00;77.25;99938.78;341079;29;1047;-74
2022/11/03 00:35:39;;;;;;;9.50;4.70;;;;;;;8.97;77.25;99938.84;340854;29;1292;-74
2022/11/03 00:36:00;;;;;;;10.18;4.70;;;;;;;9.00;77.13;99949.16;340491;28;1688;-76
2022/11/03 00:36:14;;;;;;;10.18;5.00;;;;;;;9.00;77.12;99941.38;342069;28;1997;-74
2022/11/03 00:36:30;;;;;;;11.15;5.05;;;;;;;9.01;77.12;99945.69;340824;29;1126;-72
2022/11/03 00:36:43;;;;;;;11.02;4.70;;;;;;;9.01;77.08;99945.69;340791;29;1024;-73
2022/11/03 00:36:55;;;;;;;9.68;4.60;;;;;;;8.98;77.22;99948.34;340688;28;1974;-73
2022/11/03 00:37:07;;;;;;;10.20;4.78;;;;;;;8.99;77.21;99942.25;341328;28;2095;-73
2022/11/03 00:37:19;;;;;;;9.82;4.53;;;;;;;8.97;77.07;99944.03;340667;29;1304;-72
2022/11/03 00:37:31;;;;;;;9.80;4.30;;;;;;;8.98;77.26;99940.56;340946;28;1236;-72
2022/11/03 00:37:43;;;;;;;9.18;4.28;;;;;;;9.00;77.00;99943.97;341007;29;1108;-72
2022/11/03 00:37:55;;;;;;;9.48;4.47;;;;;;;9.00;76.87;99944.81;340687;28;1648;-73
2022/11/03 00:38:07;;;;;;;10.02;4.50;;;;;;;9.00;77.02;99944.81;340444;28;1955;-73
2022/11/03 00:38:19;;;;;;;11.40;4.60;;;;;;;8.99;76.91;99942.25;341027;28;1375;-72
2022/11/03 00:38:31;;;;;;;11.43;4.80;;;;;;;8.97;76.95;99944.03;341103;29;1298;-72
2022/11/03 00:38:44;;;;;;;10.05;4.80;;;;;;;8.99;77.10;99947.44;340427;28;1832;-72
2022/11/03 00:38:56;;;;;;;10.27;4.65;;;;;;;8.97;77.00;99944.03;341126;28;1910;-72
2022/11/03 00:39:09;;;;;;;10.07;4.80;;;;;;;8.95;77.30;99945.81;340633;29;1057;-72
2022/11/03 00:39:21;;;;;;;10.38;4.85;;;;;;;8.95;77.26;99943.22;341155;28;1371;-73
2022/11/03 00:39:33;;;;;;;10.60;4.70;;;;;;;8.94;77.32;99939.78;342229;28;1299;-72
2022/11/03 00:39:45;;;;;;;11.50;4.90;;;;;;;8.92;77.22;99943.28;342311;28;1320;-72
2022/11/03 00:39:57;;;;;;;11.60;5.18;;;;;;;8.94;77.33;99944.13;341676;28;1918;-72
2022/11/03 00:40:09;;;;;;;10.93;5.20;;;;;;;8.94;77.15;99942.38;341483;28;1854;-73
2022/11/03 00:40:21;;;;;;;9.48;4.90;;;;;;;8.95;77.33;99945.81;342107;28;1266;-72
2022/11/03 00:40:33;;;;;;;9.30;4.68;;;;;;;8.97;77.03;99944.03;341506;28;2635;-73
2022/11/03 00:40:52;;;;;;;9.43;4.53;;;;;;;8.97;77.13;99938.84;341929;28;1118;-72
2022/11/03 00:41:05;;;;;;;9.93;4.47;;;;;;;8.98;77.11;99943.16;340961;28;1865;-73
2022/11/03 00:41:19;;;;;;;9.50;4.53;;;;;;;8.95;77.11;99936.31;341031;28;1318;-72
2022/11/03 00:41:31;;;;;;;9.68;4.78;;;;;;;8.95;77.11;99940.63;342414;28;1058;-72
2022/11/03 00:41:43;;;;;;;10.90;4.70;;;;;;;8.96;76.87;99947.53;342286;28;1078;-73
2022/11/03 00:41:55;;;;;;;10.50;4.60;;;;;;;8.97;77.16;99944.03;341574;28;1686;-72
2022/11/03 00:42:07;;;;;;;8.27;4.65;;;;;;;8.98;76.94;99937.97;341911;28;2563;-72
2022/11/03 00:42:19;;;;;;;8.00;4.70;;;;;;;8.98;76.86;99940.56;342216;28;1325;-72
2022/11/03 00:42:33;;;;;;;8.70;4.90;;;;;;;8.97;77.13;99944.03;342125;28;1966;-73
2022/11/03 00:42:45;;;;;;;9.13;4.97;;;;;;;8.97;77.14;99938.84;342280;28;2367;-72
2022/11/03 00:42:57;;;;;;;10.27;4.85;;;;;;;8.98;76.80;99945.75;342126;28;1171;-72
2022/11/03 00:43:09;;;;;;;10.63;4.80;;;;;;;8.99;76.95;99942.25;342302;28;1110;-72
2022/11/03 00:43:22;;;;;;;12.05;4.90;;;;;;;9.00;76.95;99943.97;341929;28;1556;-72
2022/11/03 00:43:35;;;;;;;11.10;4.93;;;;;;;9.01;76.72;99935.31;341154;29;1080;-73
2022/11/03 00:43:48;;;;;;;10.25;4.82;;;;;;;9.03;76.76;99938.72;340790;29;1187;-73
2022/11/03 00:44:00;;;;;;;10.65;4.78;;;;;;;8.98;76.78;99935.38;341878;28;1839;-72
2022/11/03 00:44:12;;;;;;;10.50;4.60;;;;;;;8.99;77.02;99940.53;342054;28;1662;-73
2022/11/03 00:44:26;;;;;;;9.60;4.68;;;;;;;9.02;76.96;99941.38;342023;28;1794;-72
2022/11/03 00:44:38;;;;;;;8.30;4.63;;;;;;;8.98;76.77;99940.56;341911;28;2214;-72
2022/11/03 00:44:50;;;;;;;8.68;4.60;;;;;;;9.00;76.66;99933.63;341461;28;1982;-73
2022/11/03 00:45:02;;;;;;;8.65;4.45;;;;;;;9.02;76.68;99937.03;341991;28;1095;-73
2022/11/03 00:45:14;;;;;;;11.02;4.50;;;;;;;9.03;76.51;99938.72;342201;28;1107;-72
2022/11/03 00:45:26;;;;;;;12.48;4.60;;;;;;;9.05;76.67;99934.34;342196;28;1063;-72
2022/11/03 00:45:37;;;;;;;12.70;4.70;;;;;;;9.04;76.56;99935.25;340971;28;1987;-73
2022/11/03 00:45:49;;;;;;;13.75;4.72;;;;;;;9.02;76.68;99937.03;341937;28;1921;-72
2022/11/03 00:46:04;;;;;;;12.23;4.50;;;;;;;9.03;76.71;99938.72;342335;28;1560;-72
2022/11/03 00:46:17;;;;;;;9.38;4.30;;;;;;;9.03;76.84;99928.34;342313;28;1187;-72
2022/11/03 00:46:29;;;;;;;9.57;4.60;;;;;;;9.05;76.66;99930.91;342289;28;1168;-73
2022/11/03 00:46:41;;;;;;;8.90;4.50;;;;;;;9.07;76.53;99937.75;342001;28;1105;-72
2022/11/03 00:46:53;;;;;;;7.97;4.10;;;;;;;9.08;76.67;99939.47;341207;28;1789;-72
2022/11/03 00:47:05;;;;;;;10.05;4.40;;;;;;;9.07;76.50;99935.16;340910;28;1846;-72
2022/11/03 00:47:17;;;;;;;9.80;4.50;;;;;;;9.09;76.35;99933.41;342118;28;1295;-72
2022/11/03 00:48:28;;;;;;;7.15;4.50;;;;;;;9.10;76.42;99929.94;340768;29;1056;-72
2022/11/03 00:48:37;;;;;;;9.15;4.63;;;;;;;9.11;76.26;99929.03;340665;28;1389;-72
2022/11/03 00:48:49;;;;;;;9.07;4.80;;;;;;;9.08;76.58;99931.69;339183;29;1939;-72
2022/11/03 00:49:04;;;;;;;8.43;4.60;;;;;;;9.09;76.41;99928.22;339382;29;1131;-72
2022/11/03 00:49:16;;;;;;;9.73;4.20;;;;;;;9.10;76.50;99929.09;339998;29;1383;-72
2022/11/03 00:49:28;;;;;;;11.13;4.30;;;;;;;9.07;76.59;99929.97;340749;29;1197;-72
2022/11/03 00:49:40;;;;;;;10.43;4.30;;;;;;;9.08;76.90;99923.06;340644;28;1507;-72
2022/11/03 00:49:52;;;;;;;8.82;4.40;;;;;;;9.09;76.51;99925.63;340675;28;2364;-72
2022/11/03 00:50:04;;;;;;;9.35;4.65;;;;;;;9.09;76.43;99923.03;340162;28;1677;-73
2022/11/03 00:50:16;;;;;;;10.10;4.63;;;;;;;9.11;76.38;99923.84;340817;28;1525;-72
2022/11/03 00:50:28;;;;;;;9.88;4.43;;;;;;;9.11;76.18;99926.44;340239;29;2104;-72
2022/11/03 00:50:40;;;;;;;9.38;4.40;;;;;;;9.09;76.41;99917.84;340091;29;1107;-72
2022/11/03 00:50:52;;;;;;;10.93;4.55;;;;;;;9.07;76.36;99919.59;340371;28;2328;-72
2022/11/03 00:51:12;;;;;;;14.18;4.90;;;;;;;9.08;76.36;99923.94;341778;28;1737;-73
2022/11/03 00:51:29;;;;;;;14.20;4.90;;;;;;;9.06;76.38;99920.50;342017;28;1168;-72
2022/11/03 00:51:41;;;;;;;12.10;4.57;;;;;;;9.07;76.32;99917.00;341074;29;1259;-72
2022/11/03 00:51:53;;;;;;;11.20;4.70;;;;;;;9.08;76.60;99916.16;341269;28;1531;-72
2022/11/03 00:52:05;;;;;;;8.95;4.68;;;;;;;9.09;76.10;99917.84;342213;28;1007;-72
2022/11/03 00:52:17;;;;;;;8.25;4.45;;;;;;;9.10;76.47;99919.56;341795;28;1455;-73
2022/11/03 00:52:28;;;;;;;8.75;4.20;;;;;;;9.12;76.34;99917.78;341406;28;2163;-72
2022/11/03 00:52:40;;;;;;;9.60;4.38;;;;;;;9.13;76.15;99922.06;341524;28;1637;-73
2022/11/03 00:52:52;;;;;;;11.15;4.80;;;;;;;9.14;76.23;99915.16;342180;28;1061;-72
2022/11/03 00:53:04;;;;;;;10.27;4.93;;;;;;;9.14;76.19;99921.19;342059;28;1020;-73
2022/11/03 00:53:17;;;;;;;10.57;4.93;;;;;;;9.09;76.47;99917.84;341985;28;1108;-73
2022/11/03 00:53:30;;;;;;;10.43;4.93;;;;;;;9.10;76.66;99922.16;342194;28;1092;-72
2022/11/03 00:53:43;;;;;;;10.70;4.93;;;;;;;9.09;76.70;99919.59;342292;28;1068;-72
2022/11/03 00:53:58;;;;;;;12.98;5.38;;;;;;;9.11;76.54;99916.06;341199;28;1794;-72
2022/11/03 00:54:10;;;;;;;14.48;5.38;;;;;;;9.07;76.56;99911.81;341487;28;2137;-73
2022/11/03 00:54:22;;;;;;;10.63;4.90;;;;;;;9.08;76.67;99923.06;341783;28;1621;-73
2022/11/03 00:54:34;;;;;;;9.30;4.75;;;;;;;9.08;76.63;99916.16;341284;28;1046;-73
2022/11/03 00:54:46;;;;;;;9.00;4.72;;;;;;;9.08;76.46;99913.56;340801;28;1710;-73
2022/11/03 00:55:05;;;;;;;9.50;4.80;;;;;;;9.09;76.40;99910.06;341477;28;1536;-73
2022/11/03 00:55:18;;;;;;;11.25;4.82;;;;;;;9.10;76.62;99919.56;342260;28;1669;-72
2022/11/03 00:55:29;;;;;;;13.23;4.80;;;;;;;9.10;76.27;99916.13;341724;28;1748;-73
2022/11/03 00:55:47;;;;;;;13.30;4.78;;;;;;;9.10;76.47;99913.53;342315;28;1202;-72
2022/11/03 00:56:00;;;;;;;10.88;4.50;;;;;;;9.10;76.28;99914.38;341745;28;1873;-72
2022/11/03 00:56:15;;;;;;;10.00;4.53;;;;;;;9.09;76.50;99914.41;341563;28;1104;-73
2022/11/03 00:56:32;;;;;;;8.52;4.60;;;;;;;9.08;76.47;99916.16;340662;28;1597;-76
2022/11/03 00:56:44;;;;;;;8.55;4.68;;;;;;;9.05;76.36;99916.19;340755;28;1811;-75
2022/11/03 00:56:56;;;;;;;8.63;4.55;;;;;;;9.05;76.33;99916.19;341252;28;1901;-75
2022/11/03 00:57:08;;;;;;;9.50;4.45;;;;;;;9.05;76.37;99915.34;341772;28;1066;-74
2022/11/03 00:57:20;;;;;;;10.27;4.40;;;;;;;9.05;76.24;99905.81;341725;28;1647;-74
2022/11/03 00:57:31;;;;;;;11.70;4.68;;;;;;;9.06;76.15;99907.53;342173;28;1072;-74
2022/11/03 00:57:44;;;;;;;11.52;4.80;;;;;;;9.03;76.41;99907.59;342048;28;1317;-74
2022/11/03 00:57:56;;;;;;;11.63;4.90;;;;;;;9.04;76.07;99909.31;341646;28;1605;-74
2022/11/03 00:58:07;;;;;;;11.00;4.78;;;;;;;9.05;76.24;99916.19;341382;28;1841;-74
2022/11/03 00:58:20;;;;;;;10.07;4.65;;;;;;;9.01;76.44;99909.38;342058;28;1176;-75
2022/11/03 00:58:32;;;;;;;11.18;4.97;;;;;;;9.01;76.28;99904.19;342455;28;1082;-75
2022/11/03 00:58:45;;;;;;;11.02;5.00;;;;;;;8.98;76.18;99910.31;342289;28;1221;-74
2022/11/03 00:58:59;;;;;;;9.85;4.95;;;;;;;9.00;76.22;99907.69;341312;28;1808;-75
2022/11/03 00:59:11;;;;;;;9.82;4.70;;;;;;;9.00;76.51;99908.53;341405;28;1981;-79
2022/11/03 00:59:23;;;;;;;9.57;4.38;;;;;;;9.01;76.50;99911.97;342091;28;1643;-78
2022/11/03 00:59:35;;;;;;;8.32;4.20;;;;;;;9.00;76.37;99910.28;341913;28;1827;-77
2022/11/03 00:59:46;;;;;;;8.88;4.45;;;;;;;9.01;76.49;99909.38;342018;28;1288;-74
2022/11/03 00:59:58;;;;;;;9.00;4.60;;;;;;;9.02;76.21;99908.50;341235;28;1598;-74
2022/11/03 01:00:11;;;;;;;8.20;4.57;;;;;;;9.02;76.31;99905.91;341801;28;1958;-74
2022/11/03 01:00:23;;;;;;;8.43;4.53;;;;;;;9.01;76.43;99906.78;341905;28;1217;-76
2022/11/03 01:00:35;;;;;;;8.60;4.78;;;;;;;8.98;76.35;99905.13;342312;28;1301;-78
2022/11/03 01:00:47;;;;;;;9.55;4.78;;;;;;;9.01;76.42;99904.19;342377;28;1044;-76
2022/11/03 01:01:04;;;;;;;8.98;4.60;;;;;;;9.03;76.03;99901.56;341790;28;1812;-78
2022/11/03 01:01:24;;;;;;;9.10;4.53;;;;;;;9.04;76.20;99906.72;341065;28;1216;-77
2022/11/03 01:01:42;;;;;;;10.43;4.60;;;;;;;9.06;76.22;99911.88;342474;28;1023;-73
2022/11/03 01:01:58;;;;;;;11.63;4.93;;;;;;;9.04;76.15;99896.34;340897;28;1791;-74
2022/11/03 01:02:10;;;;;;;11.52;4.88;;;;;;;9.03;76.37;99907.59;341487;28;1035;-75
2022/11/03 01:02:22;;;;;;;10.35;4.63;;;;;;;9.03;76.07;99907.59;342265;28;1220;-73
2022/11/03 01:02:34;;;;;;;9.00;4.50;;;;;;;9.00;76.20;99903.34;342080;28;1039;-74
2022/11/03 01:02:46;;;;;;;10.30;4.72;;;;;;;8.99;76.45;99911.16;342075;28;1246;-74
2022/11/03 01:02:58;;;;;;;9.32;4.50;;;;;;;9.00;76.31;99902.50;341573;28;1783;-75
2022/11/03 01:03:10;;;;;;;9.27;4.55;;;;;;;9.01;76.13;99904.19;341954;28;1941;-76
2022/11/03 01:03:22;;;;;;;9.65;4.65;;;;;;;9.01;76.16;99904.19;341830;28;1471;-74
2022/11/03 01:03:36;;;;;;;9.85;4.85;;;;;;;9.00;76.40;99902.50;342216;28;1237;-74
2022/11/03 01:06:56;;;;;;;8.75;4.70;;;;;;;9.05;76.04;99897.19;341891;28;1752;-75